createdAt,value
2018-09-25T00:01:41.793Z,8.70
2018-09-25T00:04:15.824Z,8.17
2018-09-25T00:06:49.980Z,8.50
2018-09-25T00:09:23.877Z,8.50
2018-09-25T00:11:58.170Z,8.30
2018-09-25T00:14:32.220Z,9.07
2018-09-25T00:17:06.327Z,8.40
2018-09-25T00:19:40.406Z,8.70
2018-09-25T00:22:15.647Z,8.40
2018-09-25T00:24:49.605Z,8.30
2018-09-25T00:27:23.692Z,8.63
2018-09-25T00:29:57.985Z,8.17
2018-09-25T00:32:32.007Z,8.60
2018-09-25T00:35:05.938Z,8.23
2018-09-25T00:37:40.120Z,7.90
2018-09-25T00:40:14.212Z,8.73
2018-09-25T00:42:48.990Z,8.60
2018-09-25T00:45:23.357Z,8.30
2018-09-25T00:47:57.641Z,7.70
2018-09-25T00:50:32.332Z,8.40
2018-09-25T00:53:06.318Z,8.73
2018-09-25T00:55:40.961Z,8.27
2018-09-25T00:58:15.897Z,8.13
2018-09-25T01:00:50.060Z,9.03
2018-09-25T01:03:24.221Z,8.50
2018-09-25T01:05:58.336Z,7.90
2018-09-25T01:08:32.319Z,8.63
2018-09-25T01:11:07.321Z,8.80
2018-09-25T01:13:42.249Z,8.67
2018-09-25T01:16:16.231Z,8.20
2018-09-25T01:18:50.457Z,8.80
2018-09-25T01:21:24.282Z,8.50
2018-09-25T01:23:58.250Z,8.03
2018-09-25T01:26:32.403Z,8.30
2018-09-25T01:29:06.492Z,8.00
2018-09-25T01:31:40.646Z,8.10
2018-09-25T01:34:14.860Z,8.87
2018-09-25T01:36:48.833Z,8.10
2018-09-25T01:39:22.937Z,7.83
2018-09-25T01:41:57.791Z,8.57
2018-09-25T01:44:32.622Z,7.80
2018-09-25T01:47:06.741Z,8.07
2018-09-25T01:49:40.730Z,8.27
2018-09-25T01:52:16.175Z,8.37
2018-09-25T01:54:51.001Z,8.53
2018-09-25T01:57:25.217Z,8.07
2018-09-25T01:59:59.739Z,8.60
2018-09-25T02:02:34.753Z,9.40
2018-09-25T02:05:08.689Z,8.90
2018-09-25T02:07:42.922Z,8.27
2018-09-25T02:10:17.625Z,9.47
2018-09-25T02:12:51.574Z,8.30
2018-09-25T02:15:26.730Z,8.23
2018-09-25T02:18:01.855Z,8.67
2018-09-25T02:20:35.895Z,8.83
2018-09-25T02:23:09.887Z,8.80
2018-09-25T02:25:44.756Z,8.30
2018-09-25T02:28:20.765Z,8.27
2018-09-25T02:30:55.406Z,7.70
2018-09-25T02:33:30.492Z,8.10
2018-09-25T02:36:05.663Z,8.10
2018-09-25T02:38:39.863Z,8.60
2018-09-25T02:41:14.124Z,8.40
2018-09-25T02:43:48.078Z,8.53
2018-09-25T02:46:22.060Z,8.60
2018-09-25T02:48:56.055Z,8.33
2018-09-25T02:51:37.415Z,8.50
2018-09-25T02:54:12.024Z,8.60
2018-09-25T02:56:46.459Z,8.70
2018-09-25T02:59:20.863Z,7.70
2018-09-25T03:01:55.006Z,8.30
2018-09-25T03:04:29.098Z,8.60
2018-09-25T03:07:03.599Z,8.50
2018-09-25T03:09:37.844Z,8.40
2018-09-25T03:12:11.818Z,8.20
2018-09-25T03:14:46.635Z,8.50
2018-09-25T03:17:20.884Z,8.70
2018-09-25T03:19:54.943Z,8.53
2018-09-25T03:22:30.520Z,8.73
2018-09-25T03:25:04.530Z,8.60
2018-09-25T03:27:39.871Z,8.70
2018-09-25T03:30:13.956Z,8.47
2018-09-25T03:32:48.284Z,8.50
2018-09-25T03:35:22.929Z,9.40
2018-09-25T03:37:57.762Z,8.33
2018-09-25T03:40:32.081Z,8.80
2018-09-25T03:43:06.197Z,8.60
2018-09-25T03:45:41.224Z,9.77
2018-09-25T03:48:15.095Z,8.80
2018-09-25T03:50:49.336Z,8.70
2018-09-25T03:53:23.320Z,8.37
2018-09-25T03:55:57.726Z,8.60
2018-09-25T03:58:31.877Z,8.17
2018-09-25T04:01:06.845Z,8.87
2018-09-25T04:03:41.402Z,8.60
2018-09-25T04:06:15.497Z,8.93
2018-09-25T04:08:49.410Z,8.80
2018-09-25T04:11:23.748Z,8.73
2018-09-25T04:13:58.154Z,9.07
2018-09-25T04:16:32.924Z,8.13
2018-09-25T04:19:07.375Z,8.60
2018-09-25T04:21:42.906Z,8.70
2018-09-25T04:24:18.217Z,8.83
2018-09-25T04:26:52.805Z,8.33
2018-09-25T04:29:27.726Z,8.53
2018-09-25T04:32:02.742Z,8.10
2018-09-25T04:34:36.925Z,8.57
2018-09-25T04:37:11.093Z,8.70
2018-09-25T04:39:45.551Z,8.70
2018-09-25T04:42:19.956Z,8.37
2018-09-25T04:44:54.478Z,8.07
2018-09-25T04:47:28.767Z,8.17
2018-09-25T04:50:03.288Z,8.67
2018-09-25T04:52:37.262Z,8.90
2018-09-25T04:55:11.343Z,8.77
2018-09-25T04:57:46.031Z,8.33
2018-09-25T05:00:20.426Z,9.57
2018-09-25T05:02:54.777Z,8.70
2018-09-25T05:05:28.685Z,9.03
2018-09-25T05:08:02.846Z,8.90
2018-09-25T05:10:36.714Z,8.87
2018-09-25T05:13:11.635Z,8.83
2018-09-25T05:15:45.560Z,8.70
2018-09-25T05:18:19.455Z,9.10
2018-09-25T05:20:53.725Z,9.03
2018-09-25T05:23:27.938Z,8.53
2018-09-25T05:26:01.752Z,8.90
2018-09-25T05:28:35.569Z,8.67
2018-09-25T05:31:09.782Z,9.20
2018-09-25T05:33:45.219Z,8.63
2018-09-25T05:36:19.726Z,9.23
2018-09-25T05:38:54.161Z,9.10
2018-09-25T05:41:28.348Z,9.30
2018-09-25T05:44:02.615Z,8.80
2018-09-25T05:46:36.978Z,8.90
2018-09-25T05:49:11.268Z,9.50
2018-09-25T05:51:46.172Z,8.87
2018-09-25T05:54:20.839Z,9.00
2018-09-25T05:56:55.778Z,8.77
2018-09-25T05:59:29.680Z,9.10
2018-09-25T06:02:04.013Z,9.90
2018-09-25T06:04:38.418Z,9.93
2018-09-25T06:07:13.730Z,9.17
2018-09-25T06:09:47.735Z,8.60
2018-09-25T06:12:21.901Z,8.67
2018-09-25T06:14:56.226Z,8.30
2018-09-25T06:17:30.114Z,8.73
2018-09-25T06:20:04.543Z,21.13
2018-09-25T06:22:39.358Z,9.60
2018-09-25T06:25:13.368Z,8.90
2018-09-25T06:27:48.005Z,9.30
2018-09-25T06:30:22.556Z,9.10
2018-09-25T06:32:57.186Z,8.67
2018-09-25T06:35:31.682Z,8.50
2018-09-25T06:38:06.743Z,8.53
2018-09-25T06:40:40.766Z,8.57
2018-09-25T06:43:15.595Z,15.53
2018-09-25T06:45:49.863Z,9.33
2018-09-25T06:48:23.929Z,9.00
2018-09-25T06:50:58.668Z,8.80
2018-09-25T06:53:33.641Z,10.10
2018-09-25T06:56:08.510Z,8.40
2018-09-25T06:58:43.406Z,8.90
2018-09-25T07:01:17.589Z,8.40
2018-09-25T07:03:51.806Z,8.60
2018-09-25T07:06:27.092Z,9.87
2018-09-25T07:09:01.911Z,8.97
2018-09-25T07:11:37.232Z,8.70
2018-09-25T07:14:13.362Z,8.93
2018-09-25T07:16:47.404Z,9.13
2018-09-25T07:19:22.318Z,8.83
2018-09-25T07:21:56.410Z,9.00
2018-09-25T07:24:30.619Z,8.60
2018-09-25T07:27:05.751Z,8.53
2018-09-25T07:29:40.740Z,8.47
2018-09-25T07:32:15.304Z,9.10
2018-09-25T07:34:50.304Z,8.50
2018-09-25T07:37:25.171Z,9.37
2018-09-25T07:39:59.924Z,9.47
2018-09-25T07:42:33.885Z,8.90
2018-09-25T07:45:08.228Z,9.17
2018-09-25T07:47:42.417Z,8.80
2018-09-25T07:50:16.320Z,10.00
2018-09-25T07:52:51.911Z,9.00
2018-09-25T07:55:27.009Z,9.23
2018-09-25T07:58:02.506Z,9.40
2018-09-25T08:00:36.612Z,8.90
2018-09-25T08:03:11.070Z,8.90
2018-09-25T08:05:47.365Z,9.10
2018-09-25T08:08:23.486Z,8.80
2018-09-25T08:10:59.237Z,8.57
2018-09-25T08:13:34.035Z,10.10
2018-09-25T08:16:08.458Z,8.80
2018-09-25T08:18:43.510Z,8.80
2018-09-25T08:21:18.141Z,8.70
2018-09-25T08:23:52.260Z,9.17
2018-09-25T08:26:26.184Z,8.80
2018-09-25T08:29:00.203Z,8.97
2018-09-25T08:31:34.300Z,9.20
2018-09-25T08:34:08.417Z,8.57
2018-09-25T08:36:42.616Z,9.50
2018-09-25T08:39:17.327Z,9.40
2018-09-25T08:41:51.299Z,9.00
2018-09-25T08:44:25.605Z,8.93
2018-09-25T08:46:59.542Z,8.77
2018-09-25T08:49:34.337Z,10.37
2018-09-25T08:52:09.096Z,9.03
2018-09-25T08:54:46.106Z,8.77
2018-09-25T08:57:21.750Z,8.97
2018-09-25T09:02:47.746Z,8.80
2018-09-25T09:05:24.786Z,9.67
2018-09-25T09:08:12.311Z,8.80
2018-09-25T09:10:59.863Z,8.80
2018-09-25T09:13:47.350Z,9.03
2018-09-25T09:16:22.816Z,8.10
2018-09-25T09:18:57.955Z,9.50
2018-09-25T09:21:31.903Z,8.97
2018-09-25T09:24:06.166Z,8.27
2018-09-25T09:26:40.145Z,8.90
2018-09-25T09:29:14.054Z,8.67
2018-09-25T09:31:49.644Z,8.87
2018-09-25T09:34:23.791Z,8.80
2018-09-25T09:36:58.077Z,9.27
2018-09-25T09:39:33.474Z,8.70
2018-09-25T09:42:07.938Z,8.90
2018-09-25T09:44:42.243Z,9.13
2018-09-25T09:47:16.649Z,9.23
2018-09-25T09:49:50.763Z,9.13
2018-09-25T09:52:25.032Z,8.90
2018-09-25T09:54:59.089Z,9.03
2018-09-25T09:57:32.990Z,8.50
2018-09-25T10:00:07.988Z,8.67
2018-09-25T10:02:42.050Z,8.27
2018-09-25T10:05:16.089Z,8.50
2018-09-25T10:07:50.351Z,8.77
2018-09-25T10:10:24.367Z,9.27
2018-09-25T10:12:59.039Z,8.47
2018-09-25T10:15:33.418Z,8.47
2018-09-25T10:18:07.782Z,9.00
2018-09-25T10:20:42.161Z,9.03
2018-09-25T10:23:16.150Z,8.47
2018-09-25T10:25:50.071Z,8.80
2018-09-25T10:28:23.975Z,9.23
2018-09-25T10:30:58.089Z,8.90
2018-09-25T10:33:32.254Z,8.80
2018-09-25T10:36:06.158Z,8.20
2018-09-25T10:38:40.064Z,8.50
2018-09-25T10:41:14.638Z,8.53
2018-09-25T10:43:49.420Z,8.13
2018-09-25T10:46:24.307Z,8.60
2018-09-25T10:48:58.912Z,8.53
2018-09-25T10:51:32.943Z,8.47
2018-09-25T10:54:06.841Z,8.60
2018-09-25T10:56:40.719Z,8.13
2018-09-25T10:59:14.546Z,8.10
2018-09-25T11:01:48.425Z,8.43
2018-09-25T11:04:22.403Z,8.50
2018-09-25T11:06:56.223Z,8.40
2018-09-25T11:09:30.314Z,8.77
2018-09-25T11:12:04.316Z,8.73
2018-09-25T11:14:38.731Z,8.63
2018-09-25T11:17:12.954Z,8.30
2018-09-25T11:19:47.062Z,8.20
2018-09-25T11:22:21.128Z,7.97
2018-09-25T11:24:54.954Z,8.40
2018-09-25T11:27:28.835Z,8.53
2018-09-25T11:30:03.498Z,8.90
2018-09-25T11:32:38.047Z,8.57
2018-09-25T11:35:12.621Z,8.73
2018-09-25T11:37:46.576Z,8.07
2018-09-25T11:40:21.511Z,8.40
2018-09-25T11:42:57.111Z,8.83
2018-09-25T11:45:30.966Z,8.57
2018-09-25T11:48:04.831Z,8.70
2018-09-25T11:50:39.334Z,8.43
2018-09-25T11:53:13.281Z,8.27
2018-09-25T11:55:47.218Z,9.60
2018-09-25T11:58:21.288Z,8.13
2018-09-25T12:00:55.138Z,8.10
2018-09-25T12:03:29.147Z,9.00
2018-09-25T12:06:03.985Z,7.97
2018-09-25T12:08:37.848Z,8.37
2018-09-25T12:11:12.356Z,7.93
2018-09-25T12:13:46.650Z,8.40
2018-09-25T12:16:21.056Z,9.27
2018-09-25T12:18:55.728Z,7.70
2018-09-25T12:21:29.636Z,8.47
2018-09-25T12:24:03.785Z,8.80
2018-09-25T12:26:37.843Z,9.10
2018-09-25T12:29:11.828Z,7.80
2018-09-25T12:31:46.055Z,7.97
2018-09-25T12:34:20.190Z,8.20
2018-09-25T12:36:54.138Z,7.93
2018-09-25T12:39:28.120Z,8.60
2018-09-25T12:42:02.140Z,8.27
2018-09-25T12:44:36.258Z,8.27
2018-09-25T12:47:10.621Z,8.57
2018-09-25T12:49:44.867Z,8.00
2018-09-25T12:52:18.944Z,8.00
2018-09-25T12:54:53.062Z,7.97
2018-09-25T12:57:26.957Z,8.47
2018-09-25T13:00:01.205Z,8.00
2018-09-25T13:02:35.085Z,8.50
2018-09-25T13:05:09.067Z,8.57
2018-09-25T13:07:43.032Z,8.40
2018-09-25T13:10:17.898Z,8.27
2018-09-25T13:12:52.258Z,7.80
2018-09-25T13:15:26.711Z,7.93
2018-09-25T13:18:00.793Z,8.40
2018-09-25T13:20:34.769Z,8.37
2018-09-25T13:23:09.019Z,8.03
2018-09-25T13:25:45.302Z,8.33
2018-09-25T13:28:19.224Z,8.20
2018-09-25T13:30:53.233Z,8.03
2018-09-25T13:33:27.266Z,8.07
2018-09-25T13:36:01.305Z,7.93
2018-09-25T13:38:35.379Z,8.00
2018-09-25T13:41:09.456Z,8.00
2018-09-25T13:43:43.251Z,8.60
2018-09-25T13:46:17.248Z,8.50
2018-09-25T13:48:51.264Z,8.10
2018-09-25T13:51:25.146Z,7.73
2018-09-25T13:53:59.337Z,7.90
2018-09-25T13:56:34.597Z,7.97
2018-09-25T13:59:08.489Z,8.00
2018-09-25T14:01:42.381Z,8.33
2018-09-25T14:04:17.038Z,8.20
2018-09-25T14:06:51.175Z,8.07
2018-09-25T14:09:25.059Z,7.90
2018-09-25T14:11:59.022Z,8.50
2018-09-25T14:14:32.870Z,7.90
2018-09-25T14:17:06.942Z,7.60
2018-09-25T14:19:40.783Z,8.20
2018-09-25T14:22:14.980Z,8.10
2018-09-25T14:24:49.345Z,8.27
2018-09-25T14:27:23.396Z,7.80
2018-09-25T14:29:57.331Z,8.33
2018-09-25T14:32:31.312Z,8.30
2018-09-25T14:35:05.327Z,8.50
2018-09-25T14:37:39.324Z,17.20
2018-09-25T14:40:13.450Z,11.87
2018-09-25T14:42:47.698Z,8.30
2018-09-25T14:45:21.586Z,8.13
2018-09-25T14:47:55.795Z,8.27
2018-09-25T14:50:29.750Z,7.73
2018-09-25T14:53:03.532Z,7.63
2018-09-25T14:55:37.368Z,8.57
2018-09-25T14:58:11.706Z,7.77
2018-09-25T15:00:45.808Z,8.50
2018-09-25T15:03:20.193Z,8.50
2018-09-25T15:05:55.006Z,8.23
2018-09-25T15:08:28.950Z,7.80
2018-09-25T15:11:03.090Z,8.03
2018-09-25T15:13:37.538Z,8.30
2018-09-25T15:16:11.672Z,7.87
2018-09-25T15:18:45.674Z,8.03
2018-09-25T15:21:20.051Z,7.93
2018-09-25T15:23:54.139Z,8.37
2018-09-25T15:26:30.195Z,7.93
2018-09-25T15:29:04.382Z,7.97
2018-09-25T15:31:38.436Z,8.83
2018-09-25T15:34:12.712Z,8.73
2018-09-25T15:36:46.778Z,9.27
2018-09-25T15:39:21.969Z,8.57
2018-09-25T15:41:56.947Z,8.10
2018-09-25T15:44:31.368Z,8.00
2018-09-25T15:47:05.529Z,8.30
2018-09-25T15:49:39.469Z,8.60
2018-09-25T15:52:14.053Z,7.67
2018-09-25T15:54:48.687Z,8.30
2018-09-25T15:57:23.256Z,8.50
2018-09-25T15:59:58.050Z,8.80
2018-09-25T16:02:32.160Z,9.30
2018-09-25T16:05:06.361Z,9.17
2018-09-25T16:07:40.385Z,8.33
2018-09-25T16:10:14.399Z,8.13
2018-09-25T16:13:05.963Z,8.30
2018-09-25T16:15:44.755Z,8.60
2018-09-25T16:18:19.986Z,8.50
2018-09-25T16:20:54.395Z,8.30
2018-09-25T16:23:28.746Z,9.40
2018-09-25T16:26:08.596Z,8.23
2018-09-25T16:28:55.697Z,8.23
2018-09-25T16:31:30.010Z,12.97
2018-09-25T16:34:04.157Z,9.90
2018-09-25T16:36:38.465Z,9.77
2018-09-25T16:39:15.067Z,8.33
2018-09-25T16:41:49.775Z,8.77
2018-09-25T16:44:23.921Z,7.90
2018-09-25T16:47:00.315Z,8.20
2018-09-25T16:49:34.683Z,7.90
2018-09-25T16:52:08.959Z,8.40
2018-09-25T16:54:43.299Z,8.30
2018-09-25T16:57:17.277Z,8.80
2018-09-25T16:59:52.106Z,8.50
2018-09-25T17:02:26.257Z,9.27
2018-09-25T17:05:00.896Z,8.53
2018-09-25T17:07:35.027Z,8.80
2018-09-25T17:10:09.209Z,8.90
2018-09-25T17:12:43.235Z,9.10
2018-09-25T17:15:17.512Z,9.27
2018-09-25T17:17:51.771Z,8.70
2018-09-25T17:20:25.877Z,8.83
2018-09-25T17:23:00.050Z,9.40
2018-09-25T17:25:34.482Z,9.43
2018-09-25T17:28:08.498Z,10.00
2018-09-25T17:30:42.596Z,9.63
2018-09-25T17:33:16.671Z,9.40
2018-09-25T17:35:51.195Z,10.17
2018-09-25T17:38:25.430Z,9.83
2018-09-25T17:40:59.328Z,10.13
2018-09-25T17:43:33.417Z,11.13
2018-09-25T17:46:07.351Z,10.97
2018-09-25T17:48:41.292Z,10.60
2018-09-25T17:51:15.314Z,11.30
2018-09-25T17:53:49.628Z,11.10
2018-09-25T17:56:23.689Z,10.90
2018-09-25T17:58:57.540Z,10.60
2018-09-25T18:01:31.755Z,11.00
2018-09-25T18:04:05.771Z,11.90
2018-09-25T18:06:39.725Z,11.33
2018-09-25T18:09:15.152Z,10.20
2018-09-25T18:11:49.072Z,9.93
2018-09-25T18:14:23.153Z,9.50
2018-09-25T18:16:57.149Z,10.40
2018-09-25T18:19:31.368Z,10.40
2018-09-25T18:22:05.291Z,9.47
2018-09-25T18:24:39.330Z,10.00
2018-09-25T18:27:13.395Z,14.27
2018-09-25T18:29:47.302Z,10.90
2018-09-25T18:32:21.160Z,10.93
2018-09-25T18:34:55.225Z,9.57
2018-09-25T18:37:29.109Z,9.83
2018-09-25T18:40:03.389Z,10.00
2018-09-25T18:42:37.832Z,9.30
2018-09-25T18:45:12.016Z,9.70
2018-09-25T18:47:46.287Z,9.40
2018-09-25T18:50:20.518Z,10.00
2018-09-25T18:52:54.429Z,9.70
2018-09-25T18:55:28.951Z,9.63
2018-09-25T18:58:03.131Z,10.50
2018-09-25T19:00:36.983Z,11.43
2018-09-25T19:03:11.225Z,10.73
2018-09-25T19:05:45.278Z,10.00
2018-09-25T19:08:19.940Z,10.33
2018-09-25T19:10:53.810Z,10.33
2018-09-25T19:13:27.823Z,10.30
2018-09-25T19:16:02.608Z,10.60
2018-09-25T19:18:36.594Z,9.60
2018-09-25T19:21:10.943Z,10.30
2018-09-25T19:23:45.243Z,10.63
2018-09-25T19:26:19.266Z,10.40
2018-09-25T19:28:53.354Z,10.43
2018-09-25T19:31:27.664Z,10.60
2018-09-25T19:34:01.698Z,11.27
2018-09-25T19:36:36.335Z,10.93
2018-09-25T19:39:14.013Z,10.60
2018-09-25T19:41:52.772Z,10.00
2018-09-25T19:44:33.531Z,10.60
2018-09-25T19:47:10.696Z,10.43
2018-09-25T19:49:45.428Z,11.17
2018-09-25T19:52:20.163Z,10.10
2018-09-25T19:54:54.421Z,10.37
2018-09-25T19:57:29.306Z,10.70
2018-09-25T20:00:03.722Z,10.40
2018-09-25T20:02:42.505Z,11.20
2018-09-25T20:05:16.570Z,10.80
2018-09-25T20:07:51.793Z,10.47
2018-09-25T20:10:27.075Z,11.00
2018-09-25T20:13:02.925Z,11.07
2018-09-25T20:15:37.135Z,10.90
2018-09-25T20:18:11.711Z,11.43
2018-09-25T20:20:47.811Z,11.77
2018-09-25T20:23:21.748Z,11.17
2018-09-25T20:25:56.118Z,10.87
2018-09-25T20:28:30.014Z,10.50
2018-09-25T20:31:04.785Z,10.60
2018-09-25T20:33:38.954Z,11.27
2018-09-25T20:36:13.120Z,11.20
2018-09-25T20:38:47.387Z,10.47
2018-09-25T20:41:21.447Z,11.83
2018-09-25T20:43:55.642Z,10.80
2018-09-25T20:46:29.564Z,12.40
2018-09-25T20:49:04.147Z,11.17
2018-09-25T20:51:38.031Z,11.67
2018-09-25T20:54:12.118Z,11.77
2018-09-25T20:56:47.148Z,11.23
2018-09-25T20:59:21.044Z,11.10
2018-09-25T21:01:55.470Z,11.60
2018-09-25T21:04:29.900Z,10.50
2018-09-25T21:07:04.287Z,11.67
2018-09-25T21:09:38.288Z,12.17
2018-09-25T21:12:12.535Z,12.17
2018-09-25T21:14:46.534Z,10.47
2018-09-25T21:17:21.544Z,11.20
2018-09-25T21:19:55.645Z,11.00
2018-09-25T21:22:29.554Z,11.30
2018-09-25T21:25:03.855Z,11.30
2018-09-25T21:27:38.062Z,11.60
2018-09-25T21:30:11.911Z,12.30
2018-09-25T21:32:45.982Z,11.60
2018-09-25T21:35:20.705Z,11.90
2018-09-25T21:37:54.633Z,12.07
2018-09-25T21:40:29.304Z,10.83
2018-09-25T21:43:03.196Z,11.50
2018-09-25T21:45:37.172Z,10.90
2018-09-25T21:48:12.438Z,11.43
2018-09-25T21:50:46.773Z,10.57
2018-09-25T21:53:21.801Z,11.10
2018-09-25T21:55:56.088Z,10.90
2018-09-25T21:58:31.332Z,10.93
2018-09-25T22:01:05.548Z,10.80
2018-09-25T22:03:39.842Z,11.50
2018-09-25T22:06:14.219Z,10.60
2018-09-25T22:08:48.022Z,11.63
2018-09-25T22:11:22.726Z,11.37
2018-09-25T22:13:56.589Z,10.90
2018-09-25T22:16:30.538Z,10.83
2018-09-25T22:19:04.575Z,10.73
2018-09-25T22:21:38.757Z,10.13
2018-09-25T22:24:13.838Z,10.77
2018-09-25T22:26:48.123Z,10.63
2018-09-25T22:29:22.235Z,10.43
2018-09-25T22:31:56.196Z,10.50
2018-09-25T22:34:30.584Z,10.43
2018-09-25T22:37:06.104Z,10.63
2018-09-25T22:39:42.088Z,10.10
2018-09-25T22:42:17.627Z,10.20
2018-09-25T22:44:53.488Z,10.17
2018-09-25T22:47:27.666Z,9.83
2018-09-25T22:50:02.092Z,10.80
2018-09-25T22:52:35.970Z,10.30
2018-09-25T22:55:11.475Z,10.73
2018-09-25T22:57:45.307Z,10.23
2018-09-25T23:00:19.255Z,10.27
2018-09-25T23:02:53.787Z,10.20
2018-09-25T23:05:28.283Z,10.77
2018-09-25T23:08:02.331Z,12.70
2018-09-25T23:10:36.438Z,10.43
2018-09-25T23:13:10.852Z,10.10
2018-09-25T23:15:45.556Z,10.40
2018-09-25T23:18:19.277Z,9.90
2018-09-25T23:20:53.207Z,9.70
2018-09-25T23:23:27.252Z,10.33
2018-09-25T23:26:01.300Z,9.70
2018-09-25T23:28:35.439Z,10.63
2018-09-25T23:31:10.467Z,10.67
2018-09-25T23:33:44.380Z,10.20
2018-09-25T23:36:18.533Z,9.73
2018-09-25T23:38:52.637Z,9.30
2018-09-25T23:41:28.758Z,10.47
2018-09-25T23:44:03.014Z,9.87
2018-09-25T23:46:39.333Z,9.70
2018-09-25T23:49:14.466Z,9.70
2018-09-25T23:52:14.030Z,10.00
2018-09-25T23:54:48.163Z,9.07
2018-09-25T23:57:23.989Z,9.57
